TimeCDT,TemperatureF,Dew PointF,Humidity,Sea Level PressureIn,VisibilityMPH,Wind Direction,Wind SpeedMPH,Gust SpeedMPH,PrecipitationIn,Events,Conditions,WindDirDegrees,DateUTC
12:15 AM,57.2,44.6,63,29.89,10.0,SSW,10.4,-,N/A,,Clear,210,2013-04-28 05:15:00
12:35 AM,59.0,44.6,59,29.88,10.0,SSW,9.2,-,N/A,,Clear,210,2013-04-28 05:35:00
12:55 AM,57.2,44.6,63,29.89,10.0,SSW,9.2,-,N/A,,Clear,210,2013-04-28 05:55:00
1:15 AM,55.4,44.6,67,29.88,10.0,SSW,10.4,16.1,N/A,,Clear,210,2013-04-28 06:15:00
1:35 AM,55.4,44.6,67,29.88,10.0,SSW,11.5,16.1,N/A,,Clear,210,2013-04-28 06:35:00
1:55 AM,55.4,44.6,67,29.88,10.0,SSW,10.4,-,N/A,,Clear,210,2013-04-28 06:55:00
2:15 AM,55.4,42.8,63,29.88,10.0,SW,9.2,-,N/A,,Clear,220,2013-04-28 07:15:00
2:35 AM,53.6,42.8,67,29.87,10.0,SSW,9.2,-,N/A,,Clear,210,2013-04-28 07:35:00
2:55 AM,53.6,42.8,67,29.87,10.0,SW,8.1,-,N/A,,Clear,220,2013-04-28 07:55:00
3:35 AM,51.8,42.8,71,29.86,10.0,SSW,9.2,-,N/A,,Clear,210,2013-04-28 08:35:00
3:55 AM,51.8,42.8,71,29.86,10.0,SSW,6.9,-,N/A,,Clear,200,2013-04-28 08:55:00
4:15 AM,51.8,42.8,71,29.86,10.0,SSW,8.1,-,N/A,,Clear,210,2013-04-28 09:15:00
4:35 AM,51.8,42.8,71,29.86,10.0,SSW,10.4,-,N/A,,Clear,210,2013-04-28 09:35:00
4:55 AM,51.8,42.8,71,29.86,10.0,SW,9.2,-,N/A,,Clear,220,2013-04-28 09:55:00
5:15 AM,51.8,42.8,71,29.86,10.0,SW,8.1,-,N/A,,Clear,220,2013-04-28 10:15:00
5:35 AM,51.8,42.8,71,29.86,10.0,SW,8.1,-,N/A,,Clear,220,2013-04-28 10:35:00
5:55 AM,50.0,42.8,76,29.86,10.0,SW,8.1,-,N/A,,Clear,220,2013-04-28 10:55:00
6:15 AM,50.0,42.8,76,29.85,10.0,SSW,6.9,-,N/A,,Clear,210,2013-04-28 11:15:00
6:35 AM,50.0,42.8,76,29.85,10.0,SSW,9.2,-,N/A,,Clear,200,2013-04-28 11:35:00
6:55 AM,50.0,42.8,76,29.84,10.0,SSW,10.4,-,N/A,,Clear,210,2013-04-28 11:55:00
7:15 AM,51.8,42.8,71,29.83,10.0,SSW,9.2,-,N/A,,Clear,210,2013-04-28 12:15:00
7:35 AM,53.6,42.8,67,29.84,10.0,SSW,8.1,-,N/A,,Clear,210,2013-04-28 12:35:00
7:55 AM,53.6,42.8,67,29.84,10.0,SSW,9.2,-,N/A,,Clear,200,2013-04-28 12:55:00
8:15 AM,55.4,42.8,63,29.83,10.0,South,10.4,-,N/A,,Clear,190,2013-04-28 13:15:00
8:35 AM,57.2,42.8,59,29.83,10.0,SSW,9.2,-,N/A,,Clear,200,2013-04-28 13:35:00
8:55 AM,59.0,44.6,59,29.81,10.0,SSW,9.2,16.1,N/A,,Clear,210,2013-04-28 13:55:00
9:15 AM,59.0,44.6,59,29.81,10.0,SW,10.4,19.6,N/A,,Clear,220,2013-04-28 14:15:00
9:35 AM,60.8,44.6,55,29.80,10.0,South,12.7,17.3,N/A,,Clear,190,2013-04-28 14:35:00
9:55 AM,62.6,44.6,52,29.79,10.0,SSW,10.4,17.3,N/A,,Clear,200,2013-04-28 14:55:00
10:35 AM,64.4,44.6,49,29.78,10.0,South,13.8,-,N/A,,Clear,190,2013-04-28 15:35:00
10:55 AM,66.2,44.6,46,29.77,10.0,SSW,15.0,20.7,N/A,,Clear,200,2013-04-28 15:55:00
11:15 AM,66.2,42.8,43,29.77,10.0,SW,19.6,24.2,N/A,,Clear,220,2013-04-28 16:15:00
11:35 AM,68.0,42.8,40,29.77,10.0,SW,16.1,-,N/A,,Clear,220,2013-04-28 16:35:00
11:55 AM,68.0,42.8,40,29.76,10.0,SW,15.0,24.2,N/A,,Clear,220,2013-04-28 16:55:00
12:15 PM,69.8,42.8,38,29.76,10.0,SSW,18.4,25.3,N/A,,Clear,200,2013-04-28 17:15:00
12:35 PM,69.8,42.8,38,29.75,10.0,South,19.6,24.2,N/A,,Clear,190,2013-04-28 17:35:00
12:55 PM,69.8,42.8,38,29.74,10.0,SW,15.0,23.0,N/A,,Scattered Clouds,220,2013-04-28 17:55:00
1:15 PM,69.8,42.8,38,29.74,10.0,SW,17.3,27.6,N/A,,Scattered Clouds,230,2013-04-28 18:15:00
1:35 PM,69.8,42.8,38,29.74,10.0,SW,13.8,23.0,N/A,,Mostly Cloudy,220,2013-04-28 18:35:00
1:55 PM,69.8,42.8,38,29.74,10.0,SW,16.1,23.0,N/A,,Mostly Cloudy,220,2013-04-28 18:55:00
2:15 PM,69.8,44.6,40,29.73,10.0,SSW,18.4,25.3,N/A,,Scattered Clouds,210,2013-04-28 19:15:00
2:35 PM,69.8,44.6,40,29.72,10.0,SW,11.5,23.0,N/A,,Mostly Cloudy,220,2013-04-28 19:35:00
2:55 PM,71.6,44.6,38,29.72,10.0,SW,11.5,20.7,N/A,,Scattered Clouds,220,2013-04-28 19:55:00
3:15 PM,71.6,42.8,35,29.71,10.0,SW,16.1,21.9,N/A,,Clear,220,2013-04-28 20:15:00
3:35 PM,71.6,44.6,38,29.70,10.0,SW,15.0,21.9,N/A,,Scattered Clouds,230,2013-04-28 20:35:00
3:55 PM,71.6,44.6,38,29.70,10.0,WSW,17.3,-,N/A,,Clear,240,2013-04-28 20:55:00
4:15 PM,71.6,44.6,38,29.70,10.0,SSW,15.0,19.6,N/A,,Scattered Clouds,210,2013-04-28 21:15:00
4:35 PM,71.6,44.6,38,29.70,10.0,SW,10.4,18.4,N/A,,Clear,230,2013-04-28 21:35:00
4:55 PM,73.4,44.6,36,29.70,10.0,SSW,11.5,18.4,N/A,,Scattered Clouds,210,2013-04-28 21:55:00
5:15 PM,71.6,44.6,38,29.70,10.0,SW,10.4,-,N/A,,Mostly Cloudy,230,2013-04-28 22:15:00
5:35 PM,71.6,44.6,38,29.69,10.0,SW,6.9,-,N/A,,Scattered Clouds,220,2013-04-28 22:35:00
5:55 PM,73.4,44.6,36,29.68,10.0,WSW,9.2,-,N/A,,Clear,240,2013-04-28 22:55:00
6:15 PM,73.4,44.6,36,29.68,10.0,SW,9.2,-,N/A,,Scattered Clouds,230,2013-04-28 23:15:00
6:35 PM,71.6,44.6,38,29.67,10.0,South,4.6,-,N/A,,Mostly Cloudy,190,2013-04-28 23:35:00
6:55 PM,68.0,50.0,52,29.70,5.0,NNW,13.8,19.6,0.06,Rain,Heavy Rain,330,2013-04-28 23:55:00
7:15 PM,60.8,53.6,77,29.73,4.0,West,4.6,-,0.18,Rain,Rain,270,2013-04-29 00:15:00
7:35 PM,59.0,55.4,88,29.73,10.0,ENE,3.5,-,0.18,,Mostly Cloudy,60,2013-04-29 00:35:00
7:55 PM,60.8,55.4,82,29.73,10.0,Calm,Calm,-,0.19,,Overcast,0,2013-04-29 00:55:00
8:15 PM,59.0,55.4,88,29.74,10.0,Calm,Calm,-,N/A,,Mostly Cloudy,0,2013-04-29 01:15:00
8:35 PM,55.4,53.6,94,29.74,7.0,NE,3.5,-,N/A,,Scattered Clouds,50,2013-04-29 01:35:00
8:55 PM,55.4,53.6,94,29.74,7.0,Calm,Calm,-,N/A,,Scattered Clouds,0,2013-04-29 01:55:00
9:15 PM,55.4,53.6,94,29.75,5.0,Calm,Calm,-,N/A,,Overcast,0,2013-04-29 02:15:00
9:35 PM,55.4,55.4,100,29.76,7.0,South,4.6,-,N/A,,Overcast,170,2013-04-29 02:35:00
9:55 PM,55.4,55.4,100,29.75,10.0,Calm,Calm,-,N/A,,Overcast,0,2013-04-29 02:55:00
10:15 PM,57.2,53.6,88,29.74,10.0,Calm,Calm,-,N/A,,Overcast,0,2013-04-29 03:15:00
10:35 PM,55.4,53.6,94,29.74,10.0,Calm,Calm,-,N/A,Rain,Light Rain,0,2013-04-29 03:35:00
10:55 PM,55.4,53.6,94,29.74,10.0,Calm,Calm,-,N/A,,Overcast,0,2013-04-29 03:55:00
11:15 PM,53.6,53.6,100,29.73,10.0,Calm,Calm,-,N/A,,Scattered Clouds,0,2013-04-29 04:15:00
11:35 PM,53.6,51.8,94,29.73,10.0,NW,4.6,-,N/A,,Mostly Cloudy,310,2013-04-29 04:35:00
11:55 PM,53.6,51.8,94,29.73,10.0,Calm,Calm,-,N/A,,Overcast,0,2013-04-29 04:55:00